createdAt,value
2018-03-18T00:02:14.917Z,8.23
2018-03-18T00:04:40.932Z,7.93
2018-03-18T00:07:06.895Z,8.40
2018-03-18T00:09:32.906Z,8.93
2018-03-18T00:11:58.941Z,7.67
2018-03-18T00:14:24.969Z,7.17
2018-03-18T00:16:50.970Z,8.33
2018-03-18T00:19:17.796Z,7.87
2018-03-18T00:21:43.865Z,8.60
2018-03-18T00:24:09.844Z,7.10
2018-03-18T00:26:35.892Z,6.27
2018-03-18T00:29:01.874Z,6.30
2018-03-18T00:31:27.861Z,6.47
2018-03-18T00:33:53.880Z,7.67
2018-03-18T00:36:19.858Z,7.60
2018-03-18T00:38:45.856Z,6.37
2018-03-18T00:41:11.867Z,7.03
2018-03-18T00:43:37.876Z,7.93
2018-03-18T00:46:04.599Z,6.77
2018-03-18T00:48:30.572Z,8.60
2018-03-18T00:50:57.262Z,7.57
2018-03-18T00:53:23.309Z,8.67
2018-03-18T00:55:49.284Z,7.97
2018-03-18T00:58:15.364Z,7.83
2018-03-18T01:00:41.385Z,7.50
2018-03-18T01:03:07.383Z,6.23
2018-03-18T01:05:33.394Z,6.10
2018-03-18T01:07:59.441Z,7.93
2018-03-18T01:10:25.482Z,7.50
2018-03-18T01:12:51.453Z,8.10
2018-03-18T01:15:18.326Z,5.70
2018-03-18T01:17:45.177Z,6.03
2018-03-18T01:20:11.173Z,7.43
2018-03-18T01:22:37.160Z,7.77
2018-03-18T01:25:03.108Z,7.63
2018-03-18T01:27:29.082Z,7.57
2018-03-18T01:29:56.641Z,8.00
2018-03-18T01:32:22.640Z,8.10
2018-03-18T01:34:48.584Z,7.10
2018-03-18T01:37:14.597Z,7.50
2018-03-18T01:39:40.609Z,8.30
2018-03-18T01:42:07.378Z,8.30
2018-03-18T01:44:34.070Z,6.87
2018-03-18T01:47:00.056Z,7.50
2018-03-18T01:49:26.808Z,8.30
2018-03-18T01:51:53.517Z,7.17
2018-03-18T01:54:19.468Z,8.30
2018-03-18T01:56:45.514Z,7.83
2018-03-18T01:59:11.496Z,7.30
2018-03-18T02:01:37.449Z,7.37
2018-03-18T02:04:03.414Z,7.00
2018-03-18T02:06:29.437Z,7.17
2018-03-18T02:08:55.448Z,7.57
2018-03-18T02:11:21.461Z,6.20
2018-03-18T02:13:48.164Z,8.03
2018-03-18T02:16:14.196Z,7.70
2018-03-18T02:18:40.210Z,9.53
2018-03-18T02:21:06.174Z,8.37
2018-03-18T02:23:32.155Z,7.70
2018-03-18T02:25:58.899Z,8.20
2018-03-18T02:28:24.841Z,7.57
2018-03-18T02:30:51.575Z,7.13
2018-03-18T02:33:17.685Z,7.70
2018-03-18T02:35:43.682Z,8.00
2018-03-18T02:38:09.652Z,7.27
2018-03-18T02:40:35.641Z,7.10
2018-03-18T02:43:02.513Z,6.87
2018-03-18T02:45:28.522Z,6.97
2018-03-18T02:47:54.545Z,7.67
2018-03-18T02:50:21.247Z,7.93
2018-03-18T02:52:47.319Z,6.30
2018-03-18T02:55:13.298Z,7.03
2018-03-18T02:57:40.038Z,7.20
2018-03-18T03:00:05.984Z,6.93
2018-03-18T03:02:32.715Z,7.47
2018-03-18T03:04:58.664Z,7.27
2018-03-18T03:07:25.397Z,7.80
2018-03-18T03:09:51.378Z,7.00
2018-03-18T03:12:17.329Z,6.53
2018-03-18T03:14:43.358Z,8.00
2018-03-18T03:17:09.373Z,7.90
2018-03-18T03:19:36.111Z,8.17
2018-03-18T03:22:02.061Z,9.77
2018-03-18T03:24:28.787Z,7.53
2018-03-18T03:26:54.752Z,7.33
2018-03-18T03:29:21.445Z,6.80
2018-03-18T03:31:47.470Z,7.90
2018-03-18T03:34:13.476Z,7.47
2018-03-18T03:36:40.195Z,8.73
2018-03-18T03:39:06.145Z,7.67
2018-03-18T03:41:32.142Z,6.53
2018-03-18T03:43:58.173Z,7.77
2018-03-18T03:46:24.122Z,7.87
2018-03-18T03:48:50.105Z,7.10
2018-03-18T03:51:16.839Z,7.63
2018-03-18T03:53:43.614Z,8.60
2018-03-18T03:56:10.317Z,7.80
2018-03-18T03:58:36.345Z,6.67
2018-03-18T04:01:02.434Z,7.00
2018-03-18T04:03:29.125Z,5.77
2018-03-18T04:05:55.110Z,7.17
2018-03-18T04:08:21.122Z,7.13
2018-03-18T04:10:47.111Z,7.90
2018-03-18T04:13:14.012Z,5.00
2018-03-18T04:15:40.798Z,5.87
2018-03-18T04:18:06.745Z,5.30
2018-03-18T04:20:33.481Z,6.40
2018-03-18T04:22:59.429Z,6.00
2018-03-18T04:25:26.149Z,8.60
2018-03-18T04:27:52.102Z,5.97
2018-03-18T04:30:18.088Z,7.00
2018-03-18T04:32:44.110Z,5.03
2018-03-18T04:35:10.094Z,5.60
2018-03-18T04:37:36.034Z,6.70
2018-03-18T04:40:02.026Z,7.37
2018-03-18T04:42:27.995Z,6.03
2018-03-18T04:44:53.966Z,5.60
2018-03-18T04:47:19.949Z,5.60
2018-03-18T04:49:45.948Z,6.47
2018-03-18T04:52:12.824Z,6.97
2018-03-18T04:54:38.790Z,6.27
2018-03-18T04:57:04.771Z,6.60
2018-03-18T04:59:31.461Z,6.10
2018-03-18T05:01:57.477Z,5.07
2018-03-18T05:04:23.502Z,5.90
2018-03-18T05:06:50.291Z,6.50
2018-03-18T05:09:16.286Z,6.60
2018-03-18T05:11:42.287Z,6.60
2018-03-18T05:14:08.262Z,6.80
2018-03-18T05:16:35.048Z,6.67
2018-03-18T05:19:01.744Z,5.73
2018-03-18T05:21:27.733Z,5.23
2018-03-18T05:23:53.688Z,5.23
2018-03-18T05:26:19.667Z,6.50
2018-03-18T05:28:45.662Z,6.20
2018-03-18T05:31:11.671Z,6.00
2018-03-18T05:33:37.616Z,6.10
2018-03-18T05:36:03.626Z,5.50
2018-03-18T05:38:30.332Z,5.70
2018-03-18T05:40:56.278Z,5.00
2018-03-18T05:43:22.706Z,5.20
2018-03-18T05:45:48.717Z,7.30
2018-03-18T05:48:14.681Z,4.90
2018-03-18T05:50:40.669Z,7.13
2018-03-18T05:53:06.621Z,6.43
2018-03-18T05:55:32.573Z,6.40
2018-03-18T05:57:58.600Z,5.23
2018-03-18T06:00:24.616Z,5.00
2018-03-18T06:02:50.572Z,11.60
2018-03-18T06:05:16.574Z,6.00
2018-03-18T06:07:43.361Z,4.70
2018-03-18T06:10:10.005Z,5.20
2018-03-18T06:12:35.989Z,5.30
2018-03-18T06:15:01.934Z,5.90
2018-03-18T06:17:27.930Z,5.57
2018-03-18T06:19:53.900Z,6.00
2018-03-18T06:22:20.624Z,5.20
2018-03-18T06:24:46.600Z,4.40
2018-03-18T06:27:12.585Z,5.80
2018-03-18T06:29:38.556Z,4.60
2018-03-18T06:32:04.541Z,6.10
2018-03-18T06:34:30.492Z,5.33
2018-03-18T06:36:56.469Z,4.50
2018-03-18T06:39:22.436Z,3.90
2018-03-18T06:41:49.169Z,5.30
2018-03-18T06:44:15.885Z,5.30
2018-03-18T06:46:41.873Z,5.00
2018-03-18T06:49:08.596Z,4.83
2018-03-18T06:51:35.321Z,4.70
2018-03-18T06:54:01.277Z,6.50
2018-03-18T06:56:27.241Z,5.30
2018-03-18T06:58:53.969Z,4.43
2018-03-18T07:01:19.967Z,4.73
2018-03-18T07:03:45.969Z,5.57
2018-03-18T07:06:12.746Z,5.37
2018-03-18T07:08:38.767Z,4.97
2018-03-18T07:11:05.461Z,4.07
2018-03-18T07:13:31.442Z,5.33
2018-03-18T07:15:58.202Z,4.37
2018-03-18T07:18:24.926Z,5.00
2018-03-18T07:20:50.986Z,6.13
2018-03-18T07:23:17.712Z,5.27
2018-03-18T07:25:43.791Z,4.83
2018-03-18T07:28:10.528Z,5.20
2018-03-18T07:30:37.361Z,3.63
2018-03-18T07:33:03.373Z,4.67
2018-03-18T07:35:29.322Z,5.17
2018-03-18T07:37:55.321Z,4.63
2018-03-18T07:40:21.277Z,5.53
2018-03-18T07:42:47.265Z,4.87
2018-03-18T07:45:13.977Z,5.37
2018-03-18T07:47:40.033Z,5.13
2018-03-18T07:50:06.044Z,5.17
2018-03-18T07:52:32.010Z,5.90
2018-03-18T07:54:57.952Z,4.60
2018-03-18T07:57:23.949Z,4.83
2018-03-18T07:59:49.906Z,6.00
2018-03-18T08:02:15.904Z,5.93
2018-03-18T08:04:41.893Z,7.07
2018-03-18T08:07:07.854Z,4.37
2018-03-18T08:09:34.574Z,4.70
2018-03-18T08:12:00.603Z,3.87
2018-03-18T08:14:26.549Z,4.77
2018-03-18T08:16:52.561Z,6.10
2018-03-18T08:19:18.557Z,4.67
2018-03-18T08:21:45.300Z,5.20
2018-03-18T08:24:11.988Z,5.03
2018-03-18T08:26:38.238Z,4.93
2018-03-18T08:29:04.243Z,4.20
2018-03-18T08:31:30.248Z,5.50
2018-03-18T08:33:56.242Z,4.70
2018-03-18T08:36:22.208Z,4.80
2018-03-18T08:38:48.949Z,6.90
2018-03-18T08:41:14.945Z,3.93
2018-03-18T08:43:41.109Z,5.20
2018-03-18T08:46:07.110Z,4.73
2018-03-18T08:48:33.858Z,5.20
2018-03-18T08:51:00.577Z,5.10
2018-03-18T08:53:28.344Z,4.80
2018-03-18T08:55:55.115Z,4.47
2018-03-18T08:58:22.541Z,5.37
2018-03-18T09:00:48.619Z,3.50
2018-03-18T09:03:14.651Z,4.97
2018-03-18T09:05:40.621Z,4.70
2018-03-18T09:08:07.345Z,5.03
2018-03-18T09:10:33.336Z,4.57
2018-03-18T09:12:59.372Z,4.80
2018-03-18T09:15:25.334Z,5.40
2018-03-18T09:17:51.314Z,5.37
2018-03-18T09:20:18.005Z,4.20
2018-03-18T09:22:44.006Z,5.93
2018-03-18T09:25:10.736Z,4.23
2018-03-18T09:27:36.741Z,4.93
2018-03-18T09:30:02.768Z,6.97
2018-03-18T09:32:28.737Z,5.13
2018-03-18T09:34:54.734Z,4.93
2018-03-18T09:37:20.765Z,5.23
2018-03-18T09:39:46.704Z,4.23
2018-03-18T09:42:12.720Z,4.40
2018-03-18T09:44:38.709Z,5.07
2018-03-18T09:47:04.657Z,5.33
2018-03-18T09:49:30.698Z,5.87
2018-03-18T09:51:56.705Z,5.73
2018-03-18T09:54:22.665Z,4.83
2018-03-18T09:56:48.629Z,4.73
2018-03-18T09:59:15.360Z,7.53
2018-03-18T10:01:41.342Z,5.83
2018-03-18T10:04:07.339Z,7.47
2018-03-18T10:06:33.298Z,7.17
2018-03-18T10:09:00.019Z,27.33
2018-03-18T10:11:26.001Z,7.13
2018-03-18T10:13:51.993Z,9.83
2018-03-18T10:16:17.947Z,8.37
2018-03-18T10:18:44.732Z,7.07
2018-03-18T10:21:10.747Z,6.03
2018-03-18T10:23:37.510Z,6.07
2018-03-18T10:26:03.468Z,5.27
2018-03-18T10:28:29.414Z,8.90
2018-03-18T10:30:55.418Z,10.23
2018-03-18T10:33:22.118Z,6.30
2018-03-18T10:35:48.095Z,6.17
2018-03-18T10:38:14.852Z,5.47
2018-03-18T10:40:41.641Z,5.10
2018-03-18T10:43:07.589Z,5.37
2018-03-18T10:45:33.533Z,4.60
2018-03-18T10:47:59.522Z,5.00
2018-03-18T10:50:26.254Z,5.33
2018-03-18T10:52:52.233Z,4.03
2018-03-18T10:55:18.215Z,5.60
2018-03-18T10:57:44.263Z,4.37
2018-03-18T11:00:11.926Z,4.03
2018-03-18T11:02:38.053Z,4.30
2018-03-18T11:05:03.985Z,5.20
2018-03-18T11:07:29.998Z,5.07
2018-03-18T11:09:55.945Z,3.90
2018-03-18T11:12:21.898Z,4.87
2018-03-18T11:14:47.881Z,12.03
2018-03-18T11:17:14.657Z,4.63
2018-03-18T11:19:40.659Z,5.23
2018-03-18T11:22:07.348Z,4.40
2018-03-18T11:24:33.281Z,4.33
2018-03-18T11:26:59.298Z,5.53
2018-03-18T11:29:25.246Z,5.13
2018-03-18T11:31:51.234Z,4.23
2018-03-18T11:34:23.058Z,4.20
2018-03-18T11:36:49.034Z,4.30
2018-03-18T11:39:15.002Z,3.90
2018-03-18T11:41:41.749Z,4.50
2018-03-18T11:44:08.438Z,5.20
2018-03-18T11:46:34.417Z,4.20
2018-03-18T11:49:00.398Z,5.10
2018-03-18T11:51:26.378Z,4.67
2018-03-18T11:53:52.330Z,6.77
2018-03-18T11:56:18.286Z,5.40
2018-03-18T11:58:45.031Z,4.10
2018-03-18T12:01:11.745Z,4.53
2018-03-18T12:03:37.890Z,5.33
2018-03-18T12:06:03.870Z,4.93
2018-03-18T12:08:43.035Z,4.50
2018-03-18T12:11:09.009Z,5.93
2018-03-18T12:13:34.992Z,4.70
2018-03-18T12:16:01.694Z,4.53
2018-03-18T12:18:27.678Z,3.93
2018-03-18T12:20:54.370Z,4.10
2018-03-18T12:23:20.357Z,5.10
2018-03-18T12:25:47.039Z,5.20
2018-03-18T12:28:13.038Z,4.23
2018-03-18T12:30:39.734Z,5.50
2018-03-18T12:33:05.721Z,4.90
2018-03-18T12:35:31.694Z,5.47
2018-03-18T12:37:57.685Z,5.27
2018-03-18T12:40:28.646Z,5.23
2018-03-18T12:43:07.105Z,5.00
2018-03-18T12:45:33.066Z,5.57
2018-03-18T12:47:59.064Z,5.77
2018-03-18T12:50:25.780Z,5.50
2018-03-18T12:52:51.728Z,5.10
2018-03-18T12:55:17.725Z,5.40
2018-03-18T12:57:43.788Z,5.80
2018-03-18T13:00:09.746Z,5.37
2018-03-18T13:02:35.821Z,5.30
2018-03-18T13:05:01.769Z,5.13
2018-03-18T13:07:27.774Z,5.10
2018-03-18T13:09:54.482Z,5.27
2018-03-18T13:12:20.517Z,6.03
2018-03-18T13:14:46.538Z,6.07
2018-03-18T13:17:12.526Z,6.37
2018-03-18T13:19:39.239Z,5.80
2018-03-18T13:22:05.235Z,5.30
2018-03-18T13:24:31.916Z,5.80
2018-03-18T13:26:57.946Z,5.17
2018-03-18T13:29:23.973Z,6.37
2018-03-18T13:31:49.949Z,5.27
2018-03-18T13:34:15.956Z,6.57
2018-03-18T13:36:41.960Z,5.43
2018-03-18T13:39:08.667Z,5.13
2018-03-18T13:41:34.626Z,5.70
2018-03-18T13:44:02.101Z,5.63
2018-03-18T13:46:28.081Z,7.10
2018-03-18T13:48:54.097Z,10.33
2018-03-18T13:51:20.794Z,8.80
2018-03-18T13:53:46.813Z,6.00
2018-03-18T13:56:12.841Z,7.40
2018-03-18T13:58:38.796Z,5.87
2018-03-18T14:01:04.773Z,5.40
2018-03-18T14:03:31.497Z,5.20
2018-03-18T14:05:57.489Z,4.90
2018-03-18T14:08:24.189Z,5.57
2018-03-18T14:10:50.138Z,6.63
2018-03-18T14:13:16.117Z,5.93
2018-03-18T14:15:42.116Z,5.20
2018-03-18T14:18:09.584Z,5.23
2018-03-18T14:20:35.553Z,6.23
2018-03-18T14:23:02.246Z,5.10
2018-03-18T14:25:28.233Z,6.27
2018-03-18T14:27:54.959Z,6.37
2018-03-18T14:30:20.955Z,6.80
2018-03-18T14:32:46.921Z,6.90
2018-03-18T14:35:12.937Z,8.13
2018-03-18T14:37:38.933Z,7.17
2018-03-18T14:40:05.608Z,7.63
2018-03-18T14:42:31.559Z,6.47
2018-03-18T14:44:57.591Z,5.53
2018-03-18T14:47:23.493Z,5.20
2018-03-18T14:49:50.230Z,7.23
2018-03-18T14:52:16.212Z,5.00
2018-03-18T14:54:42.178Z,6.10
2018-03-18T14:57:08.170Z,6.37
2018-03-18T14:59:34.117Z,5.17
2018-03-18T15:02:00.105Z,5.73
2018-03-18T15:04:26.087Z,6.07
2018-03-18T15:06:52.056Z,6.10
2018-03-18T15:09:18.020Z,5.60
2018-03-18T15:11:44.037Z,5.77
2018-03-18T15:14:09.991Z,5.47
2018-03-18T15:16:35.973Z,5.40
2018-03-18T15:19:01.919Z,5.30
2018-03-18T15:21:27.908Z,4.80
2018-03-18T15:23:54.630Z,5.23
2018-03-18T15:26:20.613Z,4.63
2018-03-18T15:28:47.402Z,5.37
2018-03-18T15:31:13.425Z,5.20
2018-03-18T15:33:39.447Z,5.27
2018-03-18T15:36:05.413Z,5.97
2018-03-18T15:38:31.370Z,6.10
2018-03-18T15:40:57.382Z,4.30
2018-03-18T15:43:23.363Z,6.40
2018-03-18T15:45:49.324Z,6.10
2018-03-18T15:48:16.099Z,5.30
2018-03-18T15:50:42.054Z,5.20
2018-03-18T15:53:08.030Z,4.33
2018-03-18T15:55:34.730Z,5.20
2018-03-18T15:58:00.713Z,5.83
2018-03-18T16:00:26.714Z,5.30
2018-03-18T16:02:52.706Z,6.40
2018-03-18T16:05:19.482Z,5.60
2018-03-18T16:07:45.593Z,5.90
2018-03-18T16:10:11.593Z,5.10
2018-03-18T16:12:37.556Z,5.40
2018-03-18T16:15:03.543Z,5.17
2018-03-18T16:17:29.561Z,4.87
2018-03-18T16:19:55.549Z,5.80
2018-03-18T16:22:21.557Z,5.97
2018-03-18T16:24:47.589Z,5.23
2018-03-18T16:27:13.663Z,5.60
2018-03-18T16:30:02.700Z,5.00
2018-03-18T16:32:28.690Z,5.70
2018-03-18T16:34:54.637Z,5.23
2018-03-18T16:37:21.352Z,6.03
2018-03-18T16:39:47.330Z,5.90
2018-03-18T16:42:14.122Z,6.90
2018-03-18T16:44:40.093Z,7.30
2018-03-18T16:47:06.083Z,5.67
2018-03-18T16:49:32.034Z,6.57
2018-03-18T16:51:58.034Z,7.27
2018-03-18T16:54:24.718Z,5.97
2018-03-18T16:56:50.681Z,5.47
2018-03-18T16:59:18.495Z,6.20
2018-03-18T17:01:44.561Z,6.27
2018-03-18T17:04:10.540Z,4.80
2018-03-18T17:06:36.527Z,5.90
2018-03-18T17:09:03.653Z,4.40
2018-03-18T17:11:29.604Z,6.00
2018-03-18T17:13:56.305Z,5.43
2018-03-18T17:16:22.294Z,5.70
2018-03-18T17:18:49.006Z,5.80
2018-03-18T17:21:15.054Z,6.60
2018-03-18T17:23:41.076Z,5.93
2018-03-18T17:26:07.005Z,5.63
2018-03-18T17:28:32.989Z,6.30
2018-03-18T17:30:59.713Z,6.10
2018-03-18T17:33:25.721Z,5.60
2018-03-18T17:35:51.951Z,6.17
2018-03-18T17:38:17.971Z,5.00
2018-03-18T17:40:44.710Z,5.90
2018-03-18T17:43:11.514Z,5.77
2018-03-18T17:45:49.853Z,5.13
2018-03-18T17:48:28.132Z,5.97
2018-03-18T17:51:07.308Z,5.43
2018-03-18T17:53:45.734Z,5.70
2018-03-18T17:56:24.168Z,5.40
2018-03-18T17:58:50.121Z,6.20
2018-03-18T18:01:16.154Z,5.67
2018-03-18T18:03:42.137Z,7.03
2018-03-18T18:06:08.869Z,5.50
2018-03-18T18:08:34.856Z,5.60
2018-03-18T18:11:00.806Z,6.23
2018-03-18T18:13:26.858Z,5.07
2018-03-18T18:15:52.871Z,6.00
2018-03-18T18:18:18.869Z,5.80
2018-03-18T18:20:45.636Z,5.73
2018-03-18T18:23:11.653Z,6.60
2018-03-18T18:25:38.344Z,7.30
2018-03-18T18:28:04.293Z,6.67
2018-03-18T18:30:30.303Z,7.00
2018-03-18T18:32:56.290Z,6.30
2018-03-18T18:35:22.295Z,5.10
2018-03-18T18:37:48.254Z,6.00
2018-03-18T18:40:14.282Z,5.53
2018-03-18T18:42:40.282Z,5.90
2018-03-18T18:45:06.305Z,5.70
2018-03-18T18:47:33.039Z,5.80
2018-03-18T18:49:58.988Z,7.47
2018-03-18T18:52:25.725Z,5.60
2018-03-18T18:54:51.679Z,5.87
2018-03-18T18:57:18.452Z,5.73
2018-03-18T18:59:44.479Z,6.07
2018-03-18T19:02:11.240Z,7.80
2018-03-18T19:04:37.231Z,6.47
2018-03-18T19:07:03.285Z,6.03
2018-03-18T19:09:29.297Z,7.77
2018-03-18T19:11:55.273Z,6.03
2018-03-18T19:14:22.017Z,5.90
2018-03-18T19:16:48.065Z,5.80
2018-03-18T19:19:14.006Z,8.10
2018-03-18T19:21:40.753Z,7.73
2018-03-18T19:24:07.447Z,5.40
2018-03-18T19:26:33.438Z,6.80
2018-03-18T19:29:00.181Z,5.67
2018-03-18T19:31:26.175Z,6.10
2018-03-18T19:33:52.141Z,6.73
2018-03-18T19:36:18.139Z,5.70
2018-03-18T19:38:44.142Z,6.40
2018-03-18T19:41:10.900Z,6.37
2018-03-18T19:43:37.674Z,6.00
2018-03-18T19:46:03.642Z,7.10
2018-03-18T19:48:29.628Z,6.23
2018-03-18T19:50:56.325Z,6.73
2018-03-18T19:53:22.301Z,6.83
2018-03-18T19:55:48.290Z,6.67
2018-03-18T19:58:14.348Z,6.80
2018-03-18T20:00:40.365Z,7.20
2018-03-18T20:03:06.419Z,7.13
2018-03-18T20:05:32.407Z,6.70
2018-03-18T20:07:58.502Z,7.07
2018-03-18T20:10:24.447Z,5.73
2018-03-18T20:12:50.423Z,6.47
2018-03-18T20:15:16.493Z,7.67
2018-03-18T20:17:42.516Z,6.43
2018-03-18T20:20:08.473Z,6.57
2018-03-18T20:22:34.430Z,6.93
2018-03-18T20:25:00.419Z,6.47
2018-03-18T20:27:26.402Z,7.00
2018-03-18T20:29:52.408Z,7.47
2018-03-18T20:32:18.433Z,6.10
2018-03-18T20:34:44.490Z,7.40
2018-03-18T20:37:10.457Z,7.40
2018-03-18T20:39:36.401Z,7.03
2018-03-18T20:42:03.138Z,6.67
2018-03-18T20:44:29.146Z,7.13
2018-03-18T20:46:55.149Z,6.30
2018-03-18T20:49:21.140Z,6.73
2018-03-18T20:51:47.125Z,6.73
2018-03-18T20:54:13.187Z,5.60
2018-03-18T20:56:39.166Z,6.60
2018-03-18T20:59:05.892Z,7.90
2018-03-18T21:01:31.874Z,6.40
2018-03-18T21:03:57.837Z,7.93
2018-03-18T21:06:23.849Z,7.10
2018-03-18T21:08:49.852Z,7.80
2018-03-18T21:11:15.898Z,7.50
2018-03-18T21:13:41.878Z,7.60
2018-03-18T21:16:07.918Z,6.63
2018-03-18T21:18:33.913Z,8.40
2018-03-18T21:21:00.709Z,7.90
2018-03-18T21:23:26.667Z,7.10
2018-03-18T21:25:52.614Z,8.07
2018-03-18T21:28:18.595Z,7.40
2018-03-18T21:30:44.728Z,6.70
2018-03-18T21:33:10.718Z,7.80
2018-03-18T21:35:36.748Z,7.20
2018-03-18T21:38:02.717Z,8.00
2018-03-18T21:40:28.722Z,8.40
2018-03-18T21:42:54.676Z,19.27
2018-03-18T21:45:20.677Z,36.67
2018-03-18T21:47:46.673Z,24.53
2018-03-18T21:50:12.669Z,22.10
2018-03-18T21:52:38.666Z,17.47
2018-03-18T21:55:04.653Z,17.87
2018-03-18T21:57:30.641Z,13.10
2018-03-18T21:59:56.612Z,22.33
2018-03-18T22:02:22.632Z,14.60
2018-03-18T22:04:48.681Z,13.97
2018-03-18T22:07:14.781Z,8.30
2018-03-18T22:09:40.801Z,9.27
2018-03-18T22:12:07.546Z,8.50
2018-03-18T22:14:34.281Z,8.53
2018-03-18T22:17:00.290Z,10.07
2018-03-18T22:19:26.333Z,7.73
2018-03-18T22:21:52.300Z,8.30
2018-03-18T22:24:18.295Z,8.43
2018-03-18T22:26:44.327Z,7.73
2018-03-18T22:29:10.352Z,7.60
2018-03-18T22:31:36.361Z,8.37
2018-03-18T22:34:03.085Z,7.50
2018-03-18T22:36:29.087Z,8.37
2018-03-18T22:38:55.122Z,7.47
2018-03-18T22:41:21.109Z,7.33
2018-03-18T22:43:47.141Z,8.50
2018-03-18T22:46:13.100Z,7.10
2018-03-18T22:48:39.833Z,6.83
2018-03-18T22:51:05.796Z,7.13
2018-03-18T22:53:32.537Z,8.40
2018-03-18T22:55:58.518Z,9.47
2018-03-18T22:58:24.493Z,8.03
2018-03-18T23:00:50.482Z,8.00
2018-03-18T23:03:16.486Z,8.73
2018-03-18T23:05:43.337Z,8.40
2018-03-18T23:08:09.297Z,8.60
2018-03-18T23:10:35.349Z,8.73
2018-03-18T23:13:01.358Z,7.80
2018-03-18T23:15:28.061Z,7.33
2018-03-18T23:17:54.897Z,7.77
2018-03-18T23:20:21.020Z,7.33
2018-03-18T23:22:47.769Z,7.70
2018-03-18T23:25:14.574Z,7.87
2018-03-18T23:27:40.541Z,7.37
2018-03-18T23:30:06.566Z,7.60
2018-03-18T23:32:32.653Z,8.00
2018-03-18T23:34:58.706Z,9.13
2018-03-18T23:37:24.674Z,7.27
2018-03-18T23:39:50.669Z,6.60
2018-03-18T23:42:16.736Z,7.33
2018-03-18T23:44:43.029Z,8.67
2018-03-18T23:47:09.046Z,8.30
2018-03-18T23:49:35.137Z,8.33
2018-03-18T23:52:01.093Z,7.63
2018-03-18T23:54:27.096Z,8.30
2018-03-18T23:56:53.116Z,8.53
2018-03-18T23:59:19.096Z,8.40
